Main page
METAR-TAF:

METAR-TAF

Airports :

Sardar Vallabhbhai Patel International Airport

Ahmedabad, India

latitude: 23-04N, longitude: 072-38E, elevation: 55 m

Current weather observation

The report was made 27 minutes ago, at 09:30 UTC
Wind 6 kt from the Northwest
Temperature 35°C
Humidity 19%
Pressure 1012 hPa
Visibility: 6000 m

METAR: VAAH 010930Z 31006KT 6000 NSC 35/08 Q1012 NOSIG

Time: 15:27 (09:57 UTC)

Forecast

The report was made 1 hour and 57 minutes ago, at 08:00 UTC
Forecast valid from 01 at 09 UTC to 01 at 18 UTC
Wind 6 kt from the West/Northwest
Visibility: 6000 m
Becoming
from 01 at 13 UTC to 01 at 15 UTC
Wind 5 kt from the Northwest
Visibility: 4000 m
smoke, haze

TAF: VAAH 010800Z 0109/0118 30006KT 6000 NSC BECMG 0113/0115 32005KT 4000 FU HZ

Weather observations and forecasts of more than 4000 airports (METAR and TAF reports).

The available stations are represented by yellow and red dots on the map.

Hover mouse over dot to see the name of the station.

Then click to see weather observations and forecasts.

To change the map : click on the green buttons with a black cross to zoom in, on the green button with a dash to zoom out, or on the green arrows for adjacent maps.


METAR-TAF: